Terminal Aerodrome Forecast
Issued by NWS

Home | Current Version | Previous Version | Text Only | Print | Product List | Glossary On
Versions: 1 2 3 4 5 6 7 8 9 10 11 12 13 14 15 16 17
000
FTUS43 KMPX 170700 AAA
TAFRWF
TAF AMD
KRWF 170713Z 1707/1806 34016G24KT P6SM SCT025 BKN035
     FM170830 33012G20KT P6SM SCT035
     FM171200 34011KT P6SM SCT035
     FM171500 34008KT P6SM SCT050
     FM171800 36009KT P6SM SCT250
     FM180200 VRB03KT P6SM BKN100=

USA.gov is the U.S. government's official web portal to all federal, state and local government web resources and services.